createdAt,value
2019-01-05T00:00:40.729Z,14.00
2019-01-05T00:03:30.623Z,11.50
2019-01-05T00:06:10.554Z,12.47
2019-01-05T00:09:00.464Z,15.35
2019-01-05T00:11:46.579Z,15.75
2019-01-05T00:14:36.767Z,17.77
2019-01-05T00:17:22.577Z,18.12
2019-01-05T00:20:10.945Z,13.25
2019-01-05T00:22:57.225Z,13.18
2019-01-05T00:25:43.056Z,14.13
2019-01-05T00:28:34.547Z,13.25
2019-01-05T00:31:37.879Z,13.93
2019-01-05T00:34:44.323Z,13.10
2019-01-05T00:37:32.176Z,14.13
2019-01-05T00:40:32.938Z,13.35
2019-01-05T00:43:22.575Z,11.70
2019-01-05T00:46:12.746Z,16.00
2019-01-05T00:49:06.442Z,13.10
2019-01-05T00:51:54.594Z,13.25
2019-01-05T00:54:53.684Z,12.85
2019-01-05T00:57:47.383Z,12.25
2019-01-05T01:00:33.671Z,12.07
2019-01-05T01:03:23.607Z,14.25
2019-01-05T01:06:09.404Z,12.90
2019-01-05T01:09:15.016Z,13.05
2019-01-05T01:12:02.140Z,12.73
2019-01-05T01:14:48.855Z,12.65
2019-01-05T01:17:42.085Z,15.60
2019-01-05T01:20:23.178Z,14.13
2019-01-05T01:23:05.342Z,16.82
2019-01-05T01:25:51.751Z,18.92
2019-01-05T01:28:37.857Z,19.25
2019-01-05T01:31:25.022Z,18.65
2019-01-05T01:34:24.819Z,17.37
2019-01-05T01:37:12.083Z,18.92
2019-01-05T01:40:05.786Z,25.70
2019-01-05T01:42:55.752Z,24.98
2019-01-05T01:45:36.839Z,20.88
2019-01-05T01:48:35.978Z,21.70
2019-01-05T01:51:24.806Z,28.05
2019-01-05T01:54:12.184Z,23.73
2019-01-05T01:56:54.627Z,22.02
2019-01-05T01:59:46.259Z,20.85
2019-01-05T02:02:40.044Z,25.75
2019-01-05T02:05:27.592Z,20.05
2019-01-05T02:08:18.672Z,22.70
2019-01-05T02:11:14.395Z,22.77
2019-01-05T02:14:02.295Z,25.90
2019-01-05T02:16:54.276Z,19.25
2019-01-05T02:20:08.657Z,21.42
2019-01-05T02:23:28.856Z,21.82
2019-01-05T02:26:45.600Z,18.92
2019-01-05T02:29:59.592Z,22.95
2019-01-05T02:33:20.973Z,21.12
2019-01-05T02:36:33.654Z,20.35
2019-01-05T02:39:34.395Z,23.73
2019-01-05T02:42:49.120Z,18.20
2019-01-05T02:45:51.395Z,20.00
2019-01-05T02:49:06.663Z,21.07
2019-01-05T02:52:12.774Z,20.37
2019-01-05T02:55:13.788Z,16.15
2019-01-05T02:58:27.669Z,22.67
2019-01-05T03:01:52.319Z,21.82
2019-01-05T03:05:01.423Z,15.20
2019-01-05T03:08:06.504Z,16.50
2019-01-05T03:11:05.291Z,16.93
2019-01-05T03:14:14.578Z,14.63
2019-01-05T03:17:31.167Z,14.30
2019-01-05T03:20:41.255Z,14.45
2019-01-05T03:23:46.880Z,15.18
2019-01-05T03:26:51.792Z,14.45
2019-01-05T03:30:28.317Z,12.28
2019-01-05T03:33:33.183Z,20.08
2019-01-05T03:36:54.552Z,13.50
2019-01-05T03:40:19.704Z,51.30
2019-01-05T03:43:56.336Z,13.68
2019-01-05T03:47:17.588Z,14.83
2019-01-05T03:50:10.244Z,15.53
2019-01-05T03:53:27.413Z,18.00
2019-01-05T03:56:32.284Z,15.48
2019-01-05T03:59:46.484Z,14.78
2019-01-05T04:02:55.900Z,14.45
2019-01-05T04:06:10.152Z,17.45
2019-01-05T04:09:04.144Z,15.35
2019-01-05T04:12:36.262Z,17.60
2019-01-05T04:15:45.386Z,15.50
2019-01-05T04:18:50.403Z,14.47
2019-01-05T04:22:21.089Z,17.57
2019-01-05T04:25:24.684Z,21.48
2019-01-05T04:28:48.955Z,12.82
2019-01-05T04:31:52.732Z,14.58
2019-01-05T04:34:59.259Z,15.18
2019-01-05T04:38:04.142Z,14.25
2019-01-05T04:40:58.869Z,16.23
2019-01-05T04:44:16.195Z,13.95
2019-01-05T04:47:29.753Z,17.55
2019-01-05T04:50:32.850Z,18.98
2019-01-05T04:53:39.935Z,11.93
2019-01-05T04:56:50.782Z,15.15
2019-01-05T05:00:00.440Z,19.70
2019-01-05T05:03:30.590Z,15.23
2019-01-05T05:06:57.740Z,15.10
2019-01-05T05:10:03.275Z,14.65
2019-01-05T05:13:23.137Z,9.43
2019-01-05T05:16:25.544Z,11.43
2019-01-05T05:19:47.095Z,18.05
2019-01-05T05:23:04.119Z,8.13
2019-01-05T05:26:07.060Z,8.63
2019-01-05T05:29:28.378Z,11.70
2019-01-05T05:32:20.994Z,13.05
2019-01-05T05:35:22.971Z,12.05
2019-01-05T05:38:39.627Z,9.60
2019-01-05T05:42:06.748Z,7.22
2019-01-05T05:45:11.632Z,9.85
2019-01-05T05:48:15.720Z,9.23
2019-01-05T05:51:19.527Z,5.87
2019-01-05T05:54:30.653Z,6.75
2019-01-05T05:57:35.703Z,5.37
2019-01-05T06:00:51.156Z,8.03
2019-01-05T06:04:24.460Z,5.37
2019-01-05T06:07:31.055Z,3.15
2019-01-05T06:10:58.271Z,3.08
2019-01-05T06:14:10.285Z,4.10
2019-01-05T06:17:08.958Z,3.27
2019-01-05T06:20:24.043Z,4.70
2019-01-05T06:23:37.994Z,3.50
2019-01-05T06:26:43.068Z,7.72
2019-01-05T06:30:00.609Z,3.12
2019-01-05T06:33:10.436Z,4.40
2019-01-05T06:36:31.956Z,3.20
2019-01-05T06:39:51.847Z,2.37
2019-01-05T06:43:01.407Z,5.25
2019-01-05T06:46:20.777Z,1.85
2019-01-05T06:49:34.229Z,2.40
2019-01-05T06:52:39.994Z,2.08
2019-01-05T06:55:49.707Z,1.90
2019-01-05T06:58:54.513Z,1.62
2019-01-05T07:01:59.355Z,2.72
2019-01-05T07:05:25.159Z,2.00
2019-01-05T07:08:29.051Z,6.62
2019-01-05T07:11:32.795Z,3.70
2019-01-05T07:14:29.783Z,4.30
2019-01-05T07:17:40.531Z,3.45
2019-01-05T07:20:54.012Z,2.80
2019-01-05T07:24:12.419Z,6.28
2019-01-05T07:27:29.694Z,3.95
2019-01-05T07:30:30.771Z,3.40
2019-01-05T07:33:51.615Z,1.60
2019-01-05T07:37:00.179Z,2.75
2019-01-05T07:40:21.860Z,3.65
2019-01-05T07:43:15.930Z,3.70
2019-01-05T07:46:20.611Z,4.25
2019-01-05T07:49:25.467Z,3.25
2019-01-05T07:52:29.188Z,3.15
2019-01-05T07:55:47.371Z,3.60
2019-01-05T07:59:15.952Z,5.62
2019-01-05T08:02:19.686Z,2.25
2019-01-05T08:05:30.343Z,2.52
2019-01-05T08:08:34.310Z,1.55
2019-01-05T08:11:34.435Z,1.77
2019-01-05T08:14:27.227Z,1.62
2019-01-05T08:17:44.724Z,3.80
2019-01-05T08:20:49.691Z,3.37
2019-01-05T08:23:45.164Z,5.35
2019-01-05T08:27:27.567Z,1.47
2019-01-05T08:30:38.152Z,1.98
2019-01-05T08:33:52.400Z,2.08
2019-01-05T08:36:50.587Z,1.70
2019-01-05T08:40:05.779Z,6.25
2019-01-05T08:43:20.664Z,2.67
2019-01-05T08:46:32.376Z,2.75
2019-01-05T08:49:42.444Z,1.75
2019-01-05T08:52:57.635Z,1.80
2019-01-05T08:56:17.682Z,1.65
2019-01-05T08:59:41.648Z,2.40
2019-01-05T09:02:45.493Z,4.12
2019-01-05T09:05:54.515Z,2.35
2019-01-05T09:09:09.463Z,1.77
2019-01-05T09:12:13.527Z,3.15
2019-01-05T09:15:30.322Z,2.47
2019-01-05T09:18:45.576Z,2.50
2019-01-05T09:22:13.374Z,2.30
2019-01-05T09:25:31.749Z,1.20
2019-01-05T09:28:30.592Z,3.55
2019-01-05T09:31:34.582Z,4.15
2019-01-05T09:34:44.960Z,2.70
2019-01-05T09:38:09.654Z,8.18
2019-01-05T09:41:26.423Z,3.45
2019-01-05T09:44:43.692Z,9.63
2019-01-05T09:47:54.551Z,1.70
2019-01-05T09:51:01.363Z,2.85
2019-01-05T09:54:16.311Z,1.50
2019-01-05T09:57:21.261Z,2.30
2019-01-05T10:00:41.087Z,1.92
2019-01-05T10:03:55.168Z,2.25
2019-01-05T10:07:02.475Z,2.42
2019-01-05T10:10:15.864Z,2.17
2019-01-05T10:13:36.928Z,4.08
2019-01-05T10:16:58.867Z,2.42
2019-01-05T10:20:08.148Z,4.90
2019-01-05T10:23:25.738Z,3.35
2019-01-05T10:26:29.884Z,5.83
2019-01-05T10:29:36.378Z,3.65
2019-01-05T10:32:51.536Z,6.80
2019-01-05T10:36:04.768Z,6.85
2019-01-05T10:39:01.714Z,4.05
2019-01-05T10:41:55.634Z,3.60
2019-01-05T10:44:59.423Z,2.72
2019-01-05T10:47:58.649Z,3.08
2019-01-05T10:51:19.251Z,3.27
2019-01-05T10:54:33.549Z,2.10
2019-01-05T10:57:32.983Z,9.03
2019-01-05T11:00:36.653Z,3.80
2019-01-05T11:03:41.805Z,1.95
2019-01-05T11:06:59.994Z,7.83
2019-01-05T11:10:33.436Z,1.60
2019-01-05T11:13:44.547Z,1.80
2019-01-05T11:16:57.652Z,2.42
2019-01-05T11:20:10.131Z,2.05
2019-01-05T11:23:09.567Z,4.60
2019-01-05T11:26:21.611Z,6.85
2019-01-05T11:29:44.950Z,2.87
2019-01-05T11:32:48.576Z,1.70
2019-01-05T11:35:58.105Z,2.45
2019-01-05T11:38:52.412Z,2.95
2019-01-05T11:41:46.418Z,3.20
2019-01-05T11:45:16.559Z,3.05
2019-01-05T11:48:48.259Z,11.18
2019-01-05T11:51:58.563Z,3.15
2019-01-05T11:55:10.671Z,3.15
2019-01-05T11:58:38.001Z,2.30
2019-01-05T12:01:53.826Z,4.37
2019-01-05T12:05:11.262Z,3.17
2019-01-05T12:08:16.105Z,2.33
2019-01-05T12:11:38.664Z,6.65
2019-01-05T12:14:45.171Z,6.47
2019-01-05T12:17:41.051Z,3.98
2019-01-05T12:20:59.441Z,4.17
2019-01-05T12:23:59.067Z,2.65
2019-01-05T12:27:14.671Z,10.85
2019-01-05T12:30:30.814Z,39.35
2019-01-05T12:33:45.011Z,2.55
2019-01-05T12:37:06.213Z,2.50
2019-01-05T12:40:10.210Z,7.70
2019-01-05T12:43:11.381Z,2.70
2019-01-05T12:46:47.306Z,2.62
2019-01-05T12:50:20.145Z,3.98
2019-01-05T12:53:37.210Z,2.98
2019-01-05T12:56:40.537Z,3.42
2019-01-05T12:59:55.045Z,4.70
2019-01-05T13:03:14.880Z,9.20
2019-01-05T13:06:18.608Z,3.03
2019-01-05T13:09:46.009Z,2.75
2019-01-05T13:13:00.227Z,4.25
2019-01-05T13:16:12.013Z,4.00
2019-01-05T13:19:28.057Z,2.62
2019-01-05T13:22:32.038Z,4.40
2019-01-05T13:25:51.614Z,2.83
2019-01-05T13:29:08.535Z,3.60
2019-01-05T13:32:28.828Z,4.62
2019-01-05T13:35:40.715Z,2.55
2019-01-05T13:38:57.883Z,9.53
2019-01-05T13:42:13.151Z,4.90
2019-01-05T13:45:37.248Z,6.95
2019-01-05T13:48:37.976Z,3.87
2019-01-05T13:51:38.333Z,3.93
2019-01-05T13:54:34.807Z,5.37
2019-01-05T13:57:36.799Z,3.92
2019-01-05T14:00:18.571Z,3.55
2019-01-05T14:03:20.840Z,4.93
2019-01-05T14:06:06.583Z,2.97
2019-01-05T14:08:56.660Z,4.53
2019-01-05T14:11:52.988Z,5.07
2019-01-05T14:14:39.138Z,4.62
2019-01-05T14:17:29.137Z,2.90
2019-01-05T14:20:24.469Z,3.17
2019-01-05T14:23:11.665Z,2.50
2019-01-05T14:25:58.867Z,3.50
2019-01-05T14:28:45.906Z,3.40
2019-01-05T14:31:35.760Z,5.60
2019-01-05T14:34:37.907Z,2.53
2019-01-05T14:37:23.678Z,3.58
2019-01-05T14:40:09.632Z,3.20
2019-01-05T14:43:05.830Z,3.70
2019-01-05T14:45:55.616Z,2.27
2019-01-05T14:48:51.563Z,2.70
2019-01-05T14:51:37.564Z,4.55
2019-01-05T14:54:23.651Z,2.63
2019-01-05T14:57:10.695Z,3.30
2019-01-05T15:00:05.914Z,2.30
2019-01-05T15:02:55.765Z,2.67
2019-01-05T15:05:46.803Z,3.63
2019-01-05T15:08:32.475Z,2.67
2019-01-05T15:11:19.175Z,3.17
2019-01-05T15:14:05.140Z,9.43
2019-01-05T15:16:48.211Z,2.85
2019-01-05T15:19:33.844Z,3.03
2019-01-05T15:22:20.916Z,34.63
2019-01-05T15:25:07.046Z,4.03
2019-01-05T15:28:12.271Z,3.83
2019-01-05T15:31:08.143Z,18.30
2019-01-05T15:34:07.362Z,3.87
2019-01-05T15:36:53.260Z,4.00
2019-01-05T15:39:58.697Z,2.37
2019-01-05T15:43:02.916Z,3.23
2019-01-05T15:45:58.683Z,3.53
2019-01-05T15:48:45.772Z,3.80
2019-01-05T15:51:51.284Z,3.00
2019-01-05T15:54:41.364Z,4.33
2019-01-05T15:57:27.340Z,4.10
2019-01-05T16:00:13.001Z,3.20
2019-01-05T16:02:59.804Z,2.33
2019-01-05T16:05:59.917Z,2.53
2019-01-05T16:08:46.974Z,9.23
2019-01-05T16:11:32.188Z,5.77
2019-01-05T16:14:37.514Z,7.40
2019-01-05T16:17:22.999Z,2.90
2019-01-05T16:20:16.858Z,5.83
2019-01-05T16:23:02.512Z,3.53
2019-01-05T16:25:56.699Z,4.33
2019-01-05T16:28:45.838Z,5.33
2019-01-05T16:31:42.096Z,4.20
2019-01-05T16:34:38.263Z,3.33
2019-01-05T16:37:34.556Z,3.20
2019-01-05T16:40:30.647Z,4.63
2019-01-05T16:43:26.914Z,3.47
2019-01-05T16:46:13.893Z,3.13
2019-01-05T16:49:19.096Z,3.67
2019-01-05T16:51:59.504Z,4.70
2019-01-05T16:54:49.373Z,4.13
2019-01-05T16:57:35.025Z,3.43
2019-01-05T17:00:28.059Z,3.30
2019-01-05T17:03:27.426Z,8.07
2019-01-05T17:06:13.420Z,3.67
2019-01-05T17:08:59.512Z,3.27
2019-01-05T17:11:45.277Z,3.20
2019-01-05T17:14:31.227Z,4.30
2019-01-05T17:17:20.394Z,3.40
2019-01-05T17:20:13.244Z,4.10
2019-01-05T17:22:59.023Z,8.33
2019-01-05T17:25:46.133Z,8.50
2019-01-05T17:28:39.803Z,9.47
2019-01-05T17:31:25.591Z,4.60
2019-01-05T17:34:22.032Z,20.27
2019-01-05T17:37:21.306Z,5.10
2019-01-05T17:40:13.011Z,3.97
2019-01-05T17:43:15.277Z,3.87
2019-01-05T17:45:57.971Z,5.70
2019-01-05T17:48:43.914Z,6.50
2019-01-05T17:51:37.069Z,9.10
2019-01-05T17:54:26.924Z,5.00
2019-01-05T17:57:32.377Z,8.03
2019-01-05T18:00:25.111Z,6.13
2019-01-05T18:03:11.009Z,5.70
2019-01-05T18:06:07.070Z,5.43
2019-01-05T18:08:53.205Z,3.73
2019-01-05T18:11:39.291Z,4.80
2019-01-05T18:14:25.292Z,8.80
2019-01-05T18:17:12.464Z,4.23
2019-01-05T18:19:59.550Z,9.10
2019-01-05T18:22:49.700Z,5.60
2019-01-05T18:25:38.907Z,3.87
2019-01-05T18:28:26.826Z,4.67
2019-01-05T18:31:13.018Z,7.70
2019-01-05T18:34:02.907Z,4.60
2019-01-05T18:36:56.165Z,6.00
2019-01-05T18:39:52.337Z,4.23
2019-01-05T18:42:51.733Z,5.53
2019-01-05T18:45:41.940Z,5.10
2019-01-05T18:48:28.913Z,7.50
2019-01-05T18:51:16.004Z,7.27
2019-01-05T18:53:59.302Z,5.63
2019-01-05T18:56:53.059Z,10.00
2019-01-05T18:59:38.879Z,10.27
2019-01-05T19:02:30.728Z,4.77
2019-01-05T19:05:17.215Z,8.30
2019-01-05T19:08:05.000Z,11.67
2019-01-05T19:10:50.804Z,12.60
2019-01-05T19:13:37.255Z,6.30
2019-01-05T19:16:36.388Z,9.27
2019-01-05T19:19:32.857Z,9.53
2019-01-05T19:22:18.648Z,8.00
2019-01-05T19:25:08.435Z,7.30
2019-01-05T19:27:50.210Z,8.40
2019-01-05T19:30:36.092Z,9.80
2019-01-05T19:33:21.954Z,9.50
2019-01-05T19:36:15.059Z,7.97
2019-01-05T19:39:17.211Z,13.80
2019-01-05T19:42:04.274Z,8.73
2019-01-05T19:44:54.436Z,8.93
2019-01-05T19:47:40.031Z,9.93
2019-01-05T19:50:36.437Z,11.17
2019-01-05T19:53:29.438Z,7.80
2019-01-05T19:56:15.507Z,7.13
2019-01-05T19:59:17.416Z,8.07
2019-01-05T20:02:16.787Z,16.33
2019-01-05T20:05:07.109Z,6.33
2019-01-05T20:08:00.333Z,9.33
2019-01-05T20:10:47.886Z,6.73
2019-01-05T20:13:40.951Z,6.40
2019-01-05T20:16:37.537Z,6.57
2019-01-05T20:19:23.391Z,7.53
2019-01-05T20:22:13.474Z,6.47
2019-01-05T20:25:13.100Z,5.80
2019-01-05T20:28:18.600Z,8.10
2019-01-05T20:31:12.923Z,6.30
2019-01-05T20:33:58.660Z,6.37
2019-01-05T20:36:45.845Z,10.33
2019-01-05T20:39:25.884Z,11.90
2019-01-05T20:42:11.822Z,8.87
2019-01-05T20:44:56.447Z,16.53
2019-01-05T20:47:43.635Z,7.57
2019-01-05T20:50:33.707Z,6.70
2019-01-05T20:53:23.911Z,13.63
2019-01-05T20:56:20.043Z,12.33
2019-01-05T20:59:01.043Z,8.80
2019-01-05T21:01:46.835Z,6.33
2019-01-05T21:04:30.373Z,5.17
2019-01-05T21:07:32.802Z,6.40
2019-01-05T21:10:26.224Z,9.50
2019-01-05T21:13:12.114Z,7.43
2019-01-05T21:15:58.005Z,4.77
2019-01-05T21:18:56.082Z,8.07
2019-01-05T21:21:36.236Z,9.30
2019-01-05T21:24:38.466Z,5.53
2019-01-05T21:27:28.443Z,4.73
2019-01-05T21:30:18.364Z,7.40
2019-01-05T21:33:04.537Z,7.50
2019-01-05T21:35:55.671Z,4.20
2019-01-05T21:38:42.749Z,4.57
2019-01-05T21:41:28.364Z,4.17
2019-01-05T21:44:18.671Z,7.70
2019-01-05T21:47:14.815Z,9.57
2019-01-05T21:49:59.805Z,7.57
2019-01-05T21:52:45.784Z,7.13
2019-01-05T21:55:29.419Z,5.93
2019-01-05T21:58:25.718Z,5.70
2019-01-05T22:01:16.228Z,5.47
2019-01-05T22:04:03.271Z,5.90
2019-01-05T22:06:59.423Z,3.67
2019-01-05T22:09:46.479Z,7.13
2019-01-05T22:12:46.831Z,4.97
2019-01-05T22:15:32.541Z,5.30
2019-01-05T22:18:18.408Z,6.93
2019-01-05T22:21:14.726Z,4.63
2019-01-05T22:24:01.835Z,5.80
2019-01-05T22:26:56.436Z,4.73
2019-01-05T22:29:43.541Z,6.00
2019-01-05T22:32:30.584Z,5.10
2019-01-05T22:35:15.797Z,5.77
2019-01-05T22:38:01.404Z,5.13
2019-01-05T22:40:57.659Z,7.23
2019-01-05T22:44:00.037Z,7.60
2019-01-05T22:46:59.103Z,5.63
2019-01-05T22:49:52.184Z,8.33
2019-01-05T22:52:37.882Z,5.63
2019-01-05T22:55:40.423Z,4.73
2019-01-05T22:58:27.310Z,5.80
2019-01-05T23:01:23.648Z,7.33
2019-01-05T23:04:09.675Z,6.67
2019-01-05T23:06:59.595Z,6.73
2019-01-05T23:10:01.889Z,5.80
2019-01-05T23:12:47.823Z,6.93
2019-01-05T23:15:34.894Z,5.77
2019-01-05T23:18:30.776Z,8.63
2019-01-05T23:21:16.801Z,8.40
2019-01-05T23:24:00.114Z,7.30
2019-01-05T23:26:46.739Z,4.93
2019-01-05T23:29:33.814Z,5.50
2019-01-05T23:32:20.895Z,6.17
2019-01-05T23:35:07.942Z,6.00
2019-01-05T23:38:07.110Z,6.83
2019-01-05T23:40:53.227Z,7.10
2019-01-05T23:43:39.222Z,6.20
2019-01-05T23:46:30.177Z,7.87
2019-01-05T23:49:17.130Z,5.37
2019-01-05T23:52:22.592Z,5.90
2019-01-05T23:55:15.927Z,5.97
2019-01-05T23:58:14.179Z,5.70
